AUA16P LOWW-EDDL
Flight info
| Callsign | AUA16P |
|---|---|
| Flight time | N/A |
| Altitude | 38000 |
| Route | BUWUT DCT DITIS DCT RAPET DCT MASEK DCT AMETU T852 TINSA T854 DOMUX DOMUX1A |
| Aircraft | A321/M-SDE3FGHIRWY/LB1 |
Departure
| Time | 2026-04-22 10:13 |
|---|---|
| Airport | Vienna International Airport (LOWW) |
Arrival
| Time | N/A |
|---|---|
| Airport | Düsseldorf Airport (EDDL) |
| Time | Latitude | Longitude | Altitude | Speed | Heading |
|---|---|---|---|---|---|
| 2026-04-22 09:26 | 48.11831 | 16.56989 | 625 ft | 0 kts | 206° |
| 2026-04-22 10:03 | 48.11840 | 16.56995 | 625 ft | 4 kts | 204° |
| 2026-04-22 10:04 | 48.11865 | 16.57009 | 629 ft | 4 kts | 192° |
| 2026-04-22 10:04 | 48.11890 | 16.57011 | 629 ft | 4 kts | 158° |
| 2026-04-22 10:04 | 48.11902 | 16.56997 | 629 ft | 0 kts | 116° |
| 2026-04-22 10:07 | 48.11901 | 16.57001 | 629 ft | 1 kts | 116° |
| 2026-04-22 10:07 | 48.11897 | 16.57014 | 629 ft | 1 kts | 118° |
| 2026-04-22 10:07 | 48.11888 | 16.57040 | 623 ft | 6 kts | 117° |
| 2026-04-22 10:08 | 48.11869 | 16.57097 | 624 ft | 6 kts | 116° |
| 2026-04-22 10:08 | 48.11852 | 16.57170 | 617 ft | 11 kts | 98° |
| 2026-04-22 10:08 | 48.11825 | 16.57313 | 619 ft | 18 kts | 125° |
| 2026-04-22 10:08 | 48.11699 | 16.57394 | 624 ft | 21 kts | 166° |
| 2026-04-22 10:09 | 48.11577 | 16.57444 | 620 ft | 16 kts | 163° |
| 2026-04-22 10:09 | 48.11477 | 16.57442 | 621 ft | 15 kts | 205° |
| 2026-04-22 10:09 | 48.11395 | 16.57389 | 620 ft | 11 kts | 203° |
| 2026-04-22 10:09 | 48.11329 | 16.57345 | 622 ft | 11 kts | 206° |
| 2026-04-22 10:10 | 48.11271 | 16.57301 | 619 ft | 7 kts | 207° |
| 2026-04-22 10:10 | 48.11231 | 16.57271 | 618 ft | 7 kts | 205° |
| 2026-04-22 10:10 | 48.11191 | 16.57242 | 615 ft | 6 kts | 206° |
| 2026-04-22 10:10 | 48.11172 | 16.57229 | 619 ft | 0 kts | 207° |
| 2026-04-22 10:11 | 48.11129 | 16.57195 | 626 ft | 14 kts | 206° |
| 2026-04-22 10:11 | 48.11056 | 16.57087 | 617 ft | 18 kts | 284° |
| 2026-04-22 10:12 | 48.11088 | 16.57002 | 622 ft | 0 kts | 294° |
| 2026-04-22 10:12 | 48.11094 | 16.56983 | 622 ft | 18 kts | 294° |
| 2026-04-22 10:12 | 48.11275 | 16.56429 | 617 ft | 98 kts | 296° |
| 2026-04-22 10:13 | 48.11674 | 16.55201 | 623 ft | 161 kts | 296° |
| 2026-04-22 10:13 | 48.12207 | 16.53574 | 1060 ft | 177 kts | 296° |
| 2026-04-22 10:13 | 48.12576 | 16.51816 | 1695 ft | 187 kts | 265° |
| 2026-04-22 10:13 | 48.12131 | 16.49965 | 2408 ft | 197 kts | 248° |
| 2026-04-22 10:14 | 48.11703 | 16.47905 | 2995 ft | 222 kts | 259° |
| 2026-04-22 10:14 | 48.11710 | 16.45449 | 3457 ft | 251 kts | 278° |
| 2026-04-22 10:14 | 48.11981 | 16.42808 | 4231 ft | 258 kts | 279° |
| 2026-04-22 10:14 | 48.12268 | 16.40138 | 4924 ft | 263 kts | 279° |
| 2026-04-22 10:15 | 48.12562 | 16.37401 | 5676 ft | 268 kts | 279° |
| 2026-04-22 10:15 | 48.13002 | 16.34686 | 6418 ft | 271 kts | 296° |
| 2026-04-22 10:15 | 48.14120 | 16.32469 | 7147 ft | 274 kts | 314° |
| 2026-04-22 10:15 | 48.15498 | 16.30469 | 7886 ft | 277 kts | 316° |
| 2026-04-22 10:16 | 48.16905 | 16.28454 | 8611 ft | 281 kts | 316° |
| 2026-04-22 10:16 | 48.18313 | 16.26409 | 9328 ft | 284 kts | 315° |
| 2026-04-22 10:16 | 48.19723 | 16.24323 | 10023 ft | 287 kts | 315° |
| 2026-04-22 10:16 | 48.21166 | 16.22161 | 10468 ft | 301 kts | 314° |
| 2026-04-22 10:17 | 48.22687 | 16.19878 | 10751 ft | 318 kts | 315° |
| 2026-04-22 10:17 | 48.24294 | 16.17474 | 11097 ft | 333 kts | 315° |
| 2026-04-22 10:17 | 48.25955 | 16.14977 | 11585 ft | 342 kts | 315° |
| 2026-04-22 10:17 | 48.27635 | 16.12442 | 12221 ft | 344 kts | 317° |
| 2026-04-22 10:18 | 48.29329 | 16.09883 | 12937 ft | 345 kts | 317° |
| 2026-04-22 10:18 | 48.31020 | 16.07328 | 13601 ft | 347 kts | 317° |
| 2026-04-22 10:18 | 48.32726 | 16.04748 | 14225 ft | 349 kts | 317° |
| 2026-04-22 10:18 | 48.34448 | 16.02144 | 14801 ft | 353 kts | 317° |
| 2026-04-22 10:19 | 48.36185 | 15.99512 | 15363 ft | 356 kts | 318° |
| 2026-04-22 10:19 | 48.37933 | 15.96855 | 15919 ft | 359 kts | 317° |
| 2026-04-22 10:19 | 48.39700 | 15.94168 | 16471 ft | 362 kts | 318° |
| 2026-04-22 10:19 | 48.41473 | 15.91469 | 17007 ft | 365 kts | 318° |
| 2026-04-22 10:20 | 48.43267 | 15.88734 | 17534 ft | 368 kts | 318° |
| 2026-04-22 10:20 | 48.45068 | 15.85988 | 18033 ft | 371 kts | 318° |
| 2026-04-22 10:20 | 48.46893 | 15.83201 | 18518 ft | 374 kts | 318° |
| 2026-04-22 10:20 | 48.48724 | 15.80403 | 19000 ft | 377 kts | 318° |
| 2026-04-22 10:21 | 48.50571 | 15.77573 | 19466 ft | 380 kts | 318° |
| 2026-04-22 10:21 | 48.52430 | 15.74720 | 19948 ft | 382 kts | 318° |
| 2026-04-22 10:21 | 48.54304 | 15.71842 | 20400 ft | 385 kts | 318° |
| 2026-04-22 10:21 | 48.56189 | 15.68951 | 20848 ft | 388 kts | 318° |
| 2026-04-22 10:22 | 48.58082 | 15.66042 | 21295 ft | 390 kts | 318° |
| 2026-04-22 10:22 | 48.59988 | 15.63107 | 21726 ft | 392 kts | 318° |
| 2026-04-22 10:22 | 48.61907 | 15.60153 | 22143 ft | 395 kts | 318° |
| 2026-04-22 10:22 | 48.63836 | 15.57174 | 22541 ft | 398 kts | 318° |
| 2026-04-22 10:23 | 48.65772 | 15.54184 | 22944 ft | 400 kts | 318° |
| 2026-04-22 10:23 | 48.67725 | 15.51165 | 23338 ft | 402 kts | 318° |
| 2026-04-22 10:23 | 48.69689 | 15.48129 | 23714 ft | 405 kts | 318° |
| 2026-04-22 10:23 | 48.71667 | 15.45061 | 24079 ft | 408 kts | 318° |
| 2026-04-22 10:24 | 48.73647 | 15.41985 | 24428 ft | 410 kts | 318° |
| 2026-04-22 10:24 | 48.75640 | 15.38876 | 24788 ft | 412 kts | 318° |
| 2026-04-22 10:24 | 48.77642 | 15.35753 | 25131 ft | 414 kts | 318° |
| 2026-04-22 10:24 | 48.79654 | 15.32614 | 25454 ft | 416 kts | 317° |
| 2026-04-22 10:25 | 48.81507 | 15.29199 | 25790 ft | 422 kts | 309° |
| 2026-04-22 10:25 | 48.83215 | 15.25575 | 26115 ft | 424 kts | 309° |
| 2026-04-22 10:25 | 48.84920 | 15.21924 | 26419 ft | 426 kts | 309° |
| 2026-04-22 10:25 | 48.86644 | 15.18254 | 26738 ft | 428 kts | 309° |
| 2026-04-22 10:26 | 48.88376 | 15.14592 | 27025 ft | 430 kts | 309° |
| 2026-04-22 10:26 | 48.90139 | 15.10889 | 27318 ft | 431 kts | 310° |
| 2026-04-22 10:26 | 48.91932 | 15.07218 | 27612 ft | 433 kts | 310° |
| 2026-04-22 10:26 | 48.93730 | 15.03536 | 27889 ft | 435 kts | 310° |
| 2026-04-22 10:27 | 48.95538 | 14.99824 | 28170 ft | 436 kts | 310° |
| 2026-04-22 10:27 | 48.97324 | 14.96161 | 28446 ft | 438 kts | 309° |
| 2026-04-22 10:27 | 48.99162 | 14.92376 | 28711 ft | 440 kts | 309° |
| 2026-04-22 10:27 | 49.00951 | 14.88674 | 28993 ft | 440 kts | 309° |
| 2026-04-22 10:28 | 49.02770 | 14.84929 | 29366 ft | 439 kts | 309° |
| 2026-04-22 10:28 | 49.04586 | 14.81198 | 29693 ft | 439 kts | 309° |
| 2026-04-22 10:28 | 49.06399 | 14.77462 | 29952 ft | 440 kts | 309° |
| 2026-04-22 10:28 | 49.08222 | 14.73693 | 30195 ft | 441 kts | 309° |
| 2026-04-22 10:29 | 49.10047 | 14.69914 | 30385 ft | 444 kts | 309° |
| 2026-04-22 10:29 | 49.11884 | 14.66108 | 30478 ft | 449 kts | 309° |
| 2026-04-22 10:29 | 49.15626 | 14.58328 | 30649 ft | 459 kts | 309° |
| 2026-04-22 10:30 | 49.17522 | 14.54381 | 30784 ft | 463 kts | 309° |
| 2026-04-22 10:30 | 49.19441 | 14.50385 | 30867 ft | 468 kts | 308° |
| 2026-04-22 10:30 | 49.21371 | 14.46349 | 30976 ft | 472 kts | 308° |
| 2026-04-22 10:30 | 49.23306 | 14.42286 | 31140 ft | 475 kts | 308° |
| 2026-04-22 10:31 | 49.25260 | 14.38189 | 31303 ft | 477 kts | 307° |
| 2026-04-22 10:31 | 49.27219 | 14.34084 | 31482 ft | 479 kts | 306° |
| 2026-04-22 10:31 | 49.29183 | 14.29956 | 31721 ft | 480 kts | 305° |
| 2026-04-22 10:31 | 49.31138 | 14.25834 | 32040 ft | 478 kts | 304° |
| 2026-04-22 10:32 | 49.33085 | 14.21719 | 32374 ft | 476 kts | 304° |
| 2026-04-22 10:32 | 49.35024 | 14.17624 | 32741 ft | 473 kts | 303° |
| 2026-04-22 10:32 | 49.36949 | 14.13559 | 33137 ft | 468 kts | 303° |
| 2026-04-22 10:32 | 49.38844 | 14.09537 | 33598 ft | 462 kts | 303° |
| 2026-04-22 10:33 | 49.40715 | 14.05571 | 34079 ft | 455 kts | 302° |
| 2026-04-22 10:33 | 49.42547 | 14.01680 | 34566 ft | 447 kts | 303° |
| 2026-04-22 10:33 | 49.44356 | 13.97834 | 35041 ft | 440 kts | 303° |
| 2026-04-22 10:33 | 49.46137 | 13.94036 | 35451 ft | 434 kts | 304° |
| 2026-04-22 10:34 | 49.47892 | 13.90290 | 35790 ft | 430 kts | 304° |
| 2026-04-22 10:34 | 49.49635 | 13.86575 | 36089 ft | 427 kts | 305° |
| 2026-04-22 10:34 | 49.51359 | 13.82883 | 36333 ft | 424 kts | 306° |
| 2026-04-22 10:34 | 49.53080 | 13.79195 | 36480 ft | 424 kts | 307° |
| 2026-04-22 10:35 | 49.56517 | 13.71832 | 36645 ft | 427 kts | 307° |
| 2026-04-22 10:35 | 49.58246 | 13.68109 | 36758 ft | 428 kts | 307° |
| 2026-04-22 10:35 | 49.59974 | 13.64371 | 36887 ft | 428 kts | 307° |
| 2026-04-22 10:36 | 49.61700 | 13.60634 | 37052 ft | 428 kts | 307° |
| 2026-04-22 10:36 | 49.63424 | 13.56911 | 37171 ft | 428 kts | 307° |
| 2026-04-22 10:36 | 49.65146 | 13.53186 | 37322 ft | 427 kts | 307° |
| 2026-04-22 10:36 | 49.66871 | 13.49436 | 37468 ft | 426 kts | 307° |
| 2026-04-22 10:37 | 49.68590 | 13.45706 | 37586 ft | 426 kts | 307° |
| 2026-04-22 10:37 | 49.70214 | 13.42184 | 37694 ft | 426 kts | 307° |
| 2026-04-22 10:37 | 49.71924 | 13.38465 | 37810 ft | 426 kts | 306° |
| 2026-04-22 10:38 | 49.73640 | 13.34732 | 37933 ft | 425 kts | 306° |
| 2026-04-22 10:38 | 49.75351 | 13.30998 | 38051 ft | 425 kts | 304° |
| 2026-04-22 10:38 | 49.77052 | 13.27268 | 38132 ft | 425 kts | 304° |
| 2026-04-22 10:39 | 49.80455 | 13.19779 | 38282 ft | 425 kts | 304° |
| 2026-04-22 10:39 | 49.83861 | 13.12290 | 38328 ft | 426 kts | 305° |
| 2026-04-22 10:40 | 49.87276 | 13.04780 | 38323 ft | 426 kts | 305° |
| 2026-04-22 10:40 | 49.90687 | 12.97259 | 38319 ft | 426 kts | 305° |
| 2026-04-22 10:41 | 49.94091 | 12.89709 | 38318 ft | 427 kts | 305° |
| 2026-04-22 10:41 | 49.97492 | 12.82147 | 38318 ft | 428 kts | 305° |
| 2026-04-22 10:42 | 50.00899 | 12.74569 | 38321 ft | 428 kts | 304° |
| 2026-04-22 10:42 | 50.04301 | 12.66954 | 38320 ft | 428 kts | 305° |
| 2026-04-22 10:43 | 50.07704 | 12.59361 | 38319 ft | 428 kts | 305° |
| 2026-04-22 10:43 | 50.11096 | 12.51758 | 38318 ft | 426 kts | 304° |
| 2026-04-22 10:44 | 50.14462 | 12.44169 | 38320 ft | 426 kts | 304° |
| 2026-04-22 10:44 | 50.17819 | 12.36554 | 38319 ft | 426 kts | 303° |
| 2026-04-22 10:45 | 50.20276 | 12.28164 | 38323 ft | 428 kts | 289° |
| 2026-04-22 10:45 | 50.22101 | 12.19303 | 38323 ft | 428 kts | 288° |
| 2026-04-22 10:46 | 50.23911 | 12.10510 | 38317 ft | 428 kts | 289° |
| 2026-04-22 10:46 | 50.25738 | 12.01704 | 38320 ft | 427 kts | 289° |
| 2026-04-22 10:47 | 50.27568 | 11.92861 | 38320 ft | 427 kts | 289° |